Time;durP1;ratioP1;P1;durP2;ratioP2;P2;SDS_P1;SDS_P2;PMS_P1;PMS_P2;Temp;Humidity;BMP_temperature;BMP_pressure;BME280_temperature;BME280_humidity;BME280_pressure;Samples;Min_cycle;Max_cycle;Signal;HPM_P1;HPM_P2
2022/06/06 00:01:57;;;;;;;2.60;2.40;;;;;;;17.59;97.94;100037.13;5073332;28;20565;-72
2022/06/06 00:04:24;;;;;;;1.07;1.07;;;;;;;17.59;97.14;100029.66;5073131;28;20173;-71
2022/06/06 00:06:52;;;;;;;1.67;1.57;;;;;;;17.54;97.02;100035.47;5073034;28;20224;-72
2022/06/06 00:09:18;;;;;;;1.03;1.03;;;;;;;17.48;96.76;100034.97;5073156;28;20179;-72
2022/06/06 00:11:44;;;;;;;0.33;0.33;;;;;;;17.45;96.64;100044.00;5073849;28;20327;-72
2022/06/06 00:14:12;;;;;;;0.00;0.00;;;;;;;17.45;96.35;100043.22;5073771;28;20499;-72
2022/06/06 00:16:38;;;;;;;0.00;0.00;;;;;;;17.43;96.39;100042.78;5073035;28;20232;-72
2022/06/06 00:19:04;;;;;;;0.00;0.00;;;;;;;17.39;95.85;100037.19;5072195;28;20179;-72
2022/06/06 00:21:30;;;;;;;0.67;0.67;;;;;;;17.37;96.11;100039.53;5072905;28;20217;-72
2022/06/06 00:23:59;;;;;;;0.40;0.40;;;;;;;17.34;95.81;100043.00;5073048;28;20183;-72
2022/06/06 00:26:26;;;;;;;1.23;1.13;;;;;;;17.34;95.63;100044.97;5072917;28;20166;-72
2022/06/06 00:28:51;;;;;;;0.17;0.17;;;;;;;17.31;95.91;100051.22;5071424;28;20186;-73
2022/06/06 00:36:44;;;;;;;0.00;0.00;;;;;;;17.19;95.77;100055.75;5073148;28;20676;-72
2022/06/06 00:39:13;;;;;;;1.40;1.37;;;;;;;17.16;95.45;100050.97;5072685;28;20174;-71
2022/06/06 00:41:47;;;;;;;0.00;0.00;;;;;;;17.09;95.40;100050.84;5072880;28;20293;-72
2022/06/06 00:44:16;;;;;;;0.90;0.90;;;;;;;17.08;95.30;100057.53;5072321;28;20217;-72
2022/06/06 00:46:47;;;;;;;0.23;0.23;;;;;;;17.07;93.91;100055.09;5072187;28;20614;-72
2022/06/06 00:49:20;;;;;;;0.30;0.30;;;;;;;17.03;94.05;100055.03;5072394;28;20182;-73
2022/06/06 00:51:45;;;;;;;0.30;0.30;;;;;;;16.99;94.94;100050.63;5068941;28;20182;-72
2022/06/06 00:54:11;;;;;;;0.83;0.83;;;;;;;16.99;94.64;100054.19;5072580;28;20190;-72
2022/06/06 00:56:42;;;;;;;0.67;0.67;;;;;;;16.98;94.72;100052.59;5072531;28;20563;-73
2022/06/06 00:59:19;;;;;;;0.67;0.67;;;;;;;17.00;94.81;100052.22;5072322;28;20205;-73
2022/06/06 01:01:46;;;;;;;0.40;0.40;;;;;;;17.03;93.83;100051.47;5072575;28;20229;-72
2022/06/06 01:04:15;;;;;;;1.03;0.93;;;;;;;17.06;93.37;100051.53;5073131;28;20204;-72
2022/06/06 01:06:42;;;;;;;0.87;0.87;;;;;;;17.08;93.15;100063.03;5072243;28;20187;-72
2022/06/06 01:09:09;;;;;;;0.10;0.10;;;;;;;17.14;91.47;100044.22;5072103;28;20181;-73
2022/06/06 01:11:45;;;;;;;11.23;1.90;;;;;;;17.07;92.43;100042.13;5072210;28;20181;-73
2022/06/06 01:14:14;;;;;;;0.60;0.60;;;;;;;17.08;91.09;100038.19;5072194;28;20891;-74
2022/06/06 01:16:48;;;;;;;0.00;0.00;;;;;;;17.06;91.28;100046.03;5072057;28;20178;-74
2022/06/06 01:19:16;;;;;;;0.73;0.73;;;;;;;17.01;90.88;100051.84;5071700;28;20220;-72
2022/06/06 01:22:04;;;;;;;0.10;0.10;;;;;;;16.98;90.79;100049.03;5071775;28;20662;-72
2022/06/06 01:24:45;;;;;;;0.50;0.50;;;;;;;16.94;91.02;100052.53;5071878;28;20182;-74
2022/06/06 01:27:39;;;;;;;0.00;0.00;;;;;;;16.92;91.21;100059.53;5071570;28;20287;-72
2022/06/06 01:30:09;;;;;;;3.00;1.60;;;;;;;16.89;91.31;100055.56;5070157;28;20593;-73
2022/06/06 01:32:40;;;;;;;0.40;0.40;;;;;;;16.87;91.17;100060.63;5071793;28;20174;-71
2022/06/06 01:35:06;;;;;;;0.00;0.00;;;;;;;16.87;91.52;100060.63;5071782;28;20187;-72
2022/06/06 01:37:38;;;;;;;0.00;0.00;;;;;;;16.83;92.38;100062.53;5071347;28;20687;-73
2022/06/06 01:40:09;;;;;;;0.10;0.10;;;;;;;16.86;91.32;100058.25;5072210;28;20178;-72
2022/06/06 01:42:48;;;;;;;1.00;0.97;;;;;;;16.84;91.16;100055.06;5071763;28;20170;-72
2022/06/06 01:45:22;;;;;;;1.80;0.60;;;;;;;16.83;91.05;100056.22;5071506;28;20182;-72
2022/06/06 01:47:56;;;;;;;0.87;0.87;;;;;;;16.85;90.75;100054.69;5070710;28;20174;-72
2022/06/06 01:50:22;;;;;;;0.20;0.20;;;;;;;16.87;90.90;100063.41;5071707;28;20212;-72
2022/06/06 01:52:51;;;;;;;0.00;0.00;;;;;;;16.85;90.61;100060.22;5071329;28;20171;-72
2022/06/06 01:55:17;;;;;;;1.37;1.27;;;;;;;16.83;91.13;100064.50;5071239;28;20174;-72
2022/06/06 01:57:42;;;;;;;0.00;0.00;;;;;;;16.79;91.59;100072.72;5070617;28;20167;-72
2022/06/06 02:00:08;;;;;;;0.47;0.47;;;;;;;16.82;91.57;100071.97;5071220;28;20171;-72
2022/06/06 02:02:34;;;;;;;0.00;0.00;;;;;;;16.83;91.09;100070.00;5071153;28;20167;-72
2022/06/06 02:05:00;;;;;;;2.20;2.10;;;;;;;16.85;91.82;100065.72;5071177;28;20189;-72
2022/06/06 02:07:25;;;;;;;0.00;0.00;;;;;;;16.78;92.24;100059.25;5071049;28;20526;-72
2022/06/06 02:09:50;;;;;;;4.23;0.63;;;;;;;16.78;91.76;100065.59;5070852;28;20229;-72
2022/06/06 02:12:19;;;;;;;5.00;1.13;;;;;;;16.81;92.30;100067.63;5070982;28;20182;-72
2022/06/06 02:14:45;;;;;;;0.63;0.63;;;;;;;16.79;92.21;100060.88;5069838;28;20183;-72
2022/06/06 02:17:10;;;;;;;2.17;1.37;;;;;;;16.76;92.36;100073.41;5070722;28;20220;-72
2022/06/06 02:19:35;;;;;;;0.20;0.20;;;;;;;16.75;92.80;100068.25;5070267;28;20194;-71
2022/06/06 02:22:01;;;;;;;2.43;1.67;;;;;;;16.73;92.71;100065.84;5070504;28;20248;-71
2022/06/06 02:24:26;;;;;;;0.17;0.17;;;;;;;16.74;92.81;100064.69;5070492;28;20257;-71
2022/06/06 02:26:51;;;;;;;1.10;1.10;;;;;;;16.76;92.47;100058.81;5070259;28;20210;-72
2022/06/06 02:29:17;;;;;;;2.30;2.20;;;;;;;16.79;92.59;100066.38;5069527;28;20174;-72
2022/06/06 02:31:42;;;;;;;1.20;1.10;;;;;;;16.78;92.17;100064.75;5070370;28;20591;-71
2022/06/06 02:34:08;;;;;;;0.70;0.70;;;;;;;16.79;92.60;100069.16;5069311;28;20239;-72
2022/06/06 02:36:34;;;;;;;0.00;0.00;;;;;;;16.77;93.16;100063.16;5070401;28;20174;-72
2022/06/06 02:38:59;;;;;;;0.00;0.00;;;;;;;16.81;93.81;100061.31;5069925;28;20170;-72
2022/06/06 02:41:26;;;;;;;0.00;0.00;;;;;;;16.79;93.76;100058.91;5070443;28;20225;-71
2022/06/06 02:43:52;;;;;;;0.00;0.00;;;;;;;16.77;94.64;100063.97;5070607;28;20219;-72
2022/06/06 02:46:18;;;;;;;1.03;0.23;;;;;;;16.81;93.69;100066.81;5070609;28;20653;-72
2022/06/06 02:48:43;;;;;;;0.00;0.00;;;;;;;16.83;93.20;100070.00;5069933;28;20178;-72
2022/06/06 02:51:09;;;;;;;1.37;1.27;;;;;;;16.78;93.99;100076.63;5070678;28;20174;-72
2022/06/06 02:53:34;;;;;;;0.00;0.00;;;;;;;16.76;94.11;100075.38;5070627;28;20179;-72
2022/06/06 02:56:00;;;;;;;3.40;1.07;;;;;;;16.75;94.56;100077.31;5070545;28;20231;-71
2022/06/06 02:58:26;;;;;;;0.20;0.20;;;;;;;16.74;94.52;100074.94;5070075;28;20174;-72
2022/06/06 03:01:05;;;;;;;0.00;0.00;;;;;;;16.70;94.89;100069.34;5069163;28;20256;-72
2022/06/06 03:03:31;;;;;;;0.30;0.30;;;;;;;16.71;94.92;100070.16;5070329;28;20275;-72
2022/06/06 03:06:05;;;;;;;0.00;0.00;;;;;;;16.66;95.37;100080.28;5070715;28;20638;-72
2022/06/06 03:08:45;;;;;;;1.50;1.40;;;;;;;16.68;95.50;100079.94;5069523;28;20319;-72
2022/06/06 03:11:35;;;;;;;0.00;0.00;;;;;;;16.68;96.07;100082.72;5070225;28;20181;-72
2022/06/06 03:14:25;;;;;;;3.03;2.53;;;;;;;16.67;95.30;100094.91;5070406;28;20203;-71
2022/06/06 03:23:11;;;;;;;0.00;0.00;;;;;;;16.76;94.31;100083.66;5070333;28;20201;-72
2022/06/06 03:25:54;;;;;;;0.50;0.50;;;;;;;16.77;94.49;100096.28;5070252;28;20269;-73
2022/06/06 03:28:38;;;;;;;1.40;1.30;;;;;;;16.76;94.68;100102.97;5069696;28;20228;-71
2022/06/06 03:31:23;;;;;;;1.83;1.73;;;;;;;16.72;94.39;100102.09;5068956;28;20208;-71
2022/06/06 03:34:02;;;;;;;2.10;1.60;;;;;;;16.68;94.84;100104.78;5069958;28;20640;-72
2022/06/06 03:36:39;;;;;;;2.23;2.03;;;;;;;16.66;95.53;100112.59;5070391;28;20399;-71
2022/06/06 03:39:23;;;;;;;1.40;0.93;;;;;;;16.61;95.95;100110.09;5069757;28;20630;-71
2022/06/06 03:42:01;;;;;;;0.00;0.00;;;;;;;16.60;96.34;100106.53;5070158;28;20308;-72
2022/06/06 03:44:38;;;;;;;0.53;0.53;;;;;;;16.60;96.96;100108.50;5069957;28;20194;-73
2022/06/06 03:47:18;;;;;;;2.80;2.63;;;;;;;16.57;96.72;100112.78;5070360;28;20519;-71
2022/06/06 03:50:17;;;;;;;0.93;0.93;;;;;;;16.57;96.78;100098.97;5069766;28;20186;-72
2022/06/06 03:53:21;;;;;;;9.40;2.00;;;;;;;16.61;96.77;100108.13;5071303;28;20270;-71
2022/06/06 03:56:07;;;;;;;3.07;2.83;;;;;;;16.62;96.05;100109.72;4991624;28;20663;-71
2022/06/06 03:58:33;;;;;;;2.30;1.90;;;;;;;16.62;95.77;100118.00;5068569;28;20217;-71
2022/06/06 04:01:08;;;;;;;0.10;0.10;;;;;;;16.67;95.53;100125.25;5073494;28;20206;-71
2022/06/06 04:03:35;;;;;;;2.60;2.43;;;;;;;16.72;94.57;100126.91;5073384;28;20197;-71
2022/06/06 04:06:04;;;;;;;3.37;3.07;;;;;;;16.77;92.68;100123.88;5073618;28;20206;-71
2022/06/06 04:08:32;;;;;;;2.43;1.77;;;;;;;16.79;92.34;100121.56;5072591;28;20182;-71
2022/06/06 04:11:31;;;;;;;3.13;2.87;;;;;;;16.81;91.35;100136.59;5073648;28;20198;-71
2022/06/06 04:14:09;;;;;;;3.87;1.80;;;;;;;16.83;90.57;100128.75;5073154;28;20171;-71
2022/06/06 04:17:06;;;;;;;3.07;2.87;;;;;;;16.84;89.30;100138.63;5072873;28;20171;-72
2022/06/06 04:19:53;;;;;;;4.33;3.93;;;;;;;16.84;88.47;100135.88;5072616;28;20273;-72
2022/06/06 04:22:35;;;;;;;6.13;5.30;;;;;;;16.84;87.78;100137.84;5073068;28;20210;-71
2022/06/06 04:25:04;;;;;;;7.90;4.27;;;;;;;16.83;87.28;100136.25;5073080;28;20261;-71
2022/06/06 04:27:42;;;;;;;2.83;2.73;;;;;;;16.82;87.77;100142.91;5071281;28;20190;-72
2022/06/06 04:30:29;;;;;;;3.40;3.13;;;;;;;16.79;87.83;100144.44;5071646;28;20591;-72
2022/06/06 04:33:12;;;;;;;7.23;6.63;;;;;;;16.71;87.86;100139.13;5072714;28;20179;-71
2022/06/06 04:35:55;;;;;;;6.80;6.20;;;;;;;16.65;88.35;100136.63;5072962;28;20755;-71
2022/06/06 04:38:25;;;;;;;7.93;7.17;;;;;;;16.62;88.25;100133.75;5072133;28;20182;-70
2022/06/06 04:40:58;;;;;;;3.33;3.03;;;;;;;16.67;87.82;100147.31;5072693;28;20248;-72
2022/06/06 04:43:33;;;;;;;4.67;4.23;;;;;;;16.66;87.58;100129.94;5072450;28;20182;-71
2022/06/06 04:46:03;;;;;;;3.70;3.40;;;;;;;16.58;87.84;100136.44;5072407;28;20158;-71
2022/06/06 04:48:29;;;;;;;4.93;4.43;;;;;;;16.53;87.20;100136.72;5071883;28;20449;-72
2022/06/06 04:50:56;;;;;;;4.53;4.13;;;;;;;16.50;87.47;100137.44;5072449;28;20185;-72
2022/06/06 04:53:23;;;;;;;5.93;5.43;;;;;;;16.55;87.29;100145.44;5072298;28;20174;-72
2022/06/06 04:55:50;;;;;;;12.07;5.87;;;;;;;16.57;87.73;100154.16;5071888;28;20174;-72
2022/06/06 04:58:19;;;;;;;5.83;4.37;;;;;;;16.60;87.20;100150.66;5071452;28;20207;-71
2022/06/06 05:00:45;;;;;;;3.30;3.03;;;;;;;16.60;86.52;100156.19;5072318;28;20208;-72
2022/06/06 05:03:13;;;;;;;2.50;2.30;;;;;;;16.58;85.76;100164.03;5071922;28;20162;-71
2022/06/06 05:05:47;;;;;;;3.27;3.07;;;;;;;16.55;86.57;100162.00;5071475;28;20166;-72
2022/06/06 05:08:34;;;;;;;5.63;2.67;;;;;;;16.50;86.66;100167.78;5071280;28;20174;-72
2022/06/06 05:11:25;;;;;;;3.67;3.27;;;;;;;16.46;86.73;100161.38;5072185;28;20170;-74
2022/06/06 05:14:03;;;;;;;4.67;4.10;;;;;;;16.46;86.60;100166.88;5040958;28;20185;-72
2022/06/06 05:16:31;;;;;;;5.23;4.73;;;;;;;16.46;86.78;100163.31;5071916;28;20174;-72
2022/06/06 05:19:35;;;;;;;5.83;5.00;;;;;;;16.48;87.31;100172.84;5071408;28;20701;-71
2022/06/06 05:22:33;;;;;;;3.10;2.90;;;;;;;16.56;86.77;100173.81;5071789;28;20194;-71
2022/06/06 05:25:08;;;;;;;5.20;4.67;;;;;;;16.66;85.97;100173.28;5071919;28;20642;-72
2022/06/06 05:27:52;;;;;;;3.70;3.40;;;;;;;16.76;86.20;100171.94;5071014;28;20634;-72
2022/06/06 05:30:27;;;;;;;4.37;3.30;;;;;;;16.83;85.51;100183.94;5069557;28;20182;-73
2022/06/06 05:33:08;;;;;;;3.47;3.17;;;;;;;16.92;85.42;100192.84;5071759;28;20163;-72
2022/06/06 05:35:55;;;;;;;0.57;0.57;;;;;;;17.06;84.99;100186.81;5071609;28;20151;-71
2022/06/06 05:38:39;;;;;;;20.90;4.37;;;;;;;17.18;85.17;100200.47;5070999;28;20265;-72
2022/06/06 05:41:16;;;;;;;1.90;1.70;;;;;;;17.29;83.98;100197.16;5071479;28;20495;-72
2022/06/06 05:43:56;;;;;;;5.33;4.83;;;;;;;17.36;82.96;100206.41;5071404;28;20629;-72
2022/06/06 05:46:24;;;;;;;4.80;4.23;;;;;;;17.44;83.61;100193.53;5071405;28;20611;-72
2022/06/06 05:49:34;;;;;;;3.63;3.33;;;;;;;17.44;83.41;100202.59;5071077;28;20218;-72
2022/06/06 05:52:07;;;;;;;0.53;0.53;;;;;;;17.41;83.38;100203.34;5071247;28;20639;-72
2022/06/06 05:55:20;;;;;;;5.40;3.37;;;;;;;17.18;83.80;100203.25;5071383;28;20182;-72
2022/06/06 05:58:03;;;;;;;6.07;5.47;;;;;;;17.13;85.01;100197.22;5070228;28;20167;-72
2022/06/06 06:00:37;;;;;;;9.93;5.10;;;;;;;17.04;84.89;100205.69;5070928;28;20190;-72
2022/06/06 06:03:22;;;;;;;4.93;4.53;;;;;;;17.00;85.60;100199.28;5070987;28;20609;-72
2022/06/06 06:05:55;;;;;;;2.57;2.37;;;;;;;16.99;85.11;100210.69;5071107;28;20166;-72
2022/06/06 06:08:33;;;;;;;4.10;3.70;;;;;;;17.03;85.80;100215.13;5070554;28;20265;-72
2022/06/06 06:11:29;;;;;;;9.07;4.73;;;;;;;17.16;85.84;100221.34;5071034;28;20220;-72
2022/06/06 06:14:03;;;;;;;3.90;3.63;;;;;;;17.21;85.88;100232.91;5071103;28;20574;-72
2022/06/06 06:16:34;;;;;;;5.73;5.00;;;;;;;17.15;85.92;100231.56;5070548;28;20183;-72
2022/06/06 06:19:07;;;;;;;4.83;4.03;;;;;;;17.19;85.51;100228.88;5070916;28;20406;-72
2022/06/06 06:21:38;;;;;;;6.20;2.10;;;;;;;17.32;86.01;100235.09;5070700;28;20297;-72
2022/06/06 06:24:09;;;;;;;5.90;4.57;;;;;;;17.26;85.59;100245.63;5070940;28;20171;-71
2022/06/06 06:26:36;;;;;;;4.40;4.10;;;;;;;17.12;86.47;100248.06;5070492;28;20198;-71
2022/06/06 06:29:03;;;;;;;4.20;3.90;;;;;;;17.06;86.96;100242.00;5069343;28;20186;-73
2022/06/06 06:31:50;;;;;;;3.57;2.37;;;;;;;17.02;87.24;100252.19;5068271;28;20319;-73
2022/06/06 06:34:30;;;;;;;3.83;2.00;;;;;;;17.06;87.68;100255.81;5050941;28;20178;-72
2022/06/06 06:37:15;;;;;;;5.73;5.17;;;;;;;17.09;86.94;100244.06;5062654;28;20558;-72
2022/06/06 06:39:58;;;;;;;0.57;0.57;;;;;;;17.17;86.95;100248.56;5069464;28;20174;-72
2022/06/06 06:42:42;;;;;;;1.90;1.70;;;;;;;17.35;85.86;100248.16;5070754;28;20244;-72
2022/06/06 06:45:32;;;;;;;2.80;2.63;;;;;;;17.44;84.75;100257.03;5070353;28;20594;-72
2022/06/06 06:48:03;;;;;;;1.50;1.40;;;;;;;17.55;85.06;100258.06;5070439;28;20175;-72
2022/06/06 06:50:36;;;;;;;2.07;1.93;;;;;;;17.66;84.75;100253.59;5071270;28;20265;-72
2022/06/06 06:53:16;;;;;;;1.57;1.33;;;;;;;17.58;84.30;100256.56;5071162;28;20167;-73
2022/06/06 06:56:00;;;;;;;3.13;2.83;;;;;;;17.58;84.70;100257.34;5070484;28;20265;-73
2022/06/06 06:58:41;;;;;;;2.47;2.27;;;;;;;17.59;85.87;100258.94;5069250;28;20185;-72
2022/06/06 07:01:12;;;;;;;4.33;1.23;;;;;;;17.64;85.06;100264.16;5066841;28;20201;-72
2022/06/06 07:09:57;;;;;;;2.20;1.10;;;;;;;17.71;82.40;100267.13;5070493;28;20233;-72
2022/06/06 07:12:41;;;;;;;10.83;3.30;;;;;;;17.51;81.92;100265.50;5070550;28;20170;-72
2022/06/06 07:15:20;;;;;;;4.40;3.13;;;;;;;17.47;82.20;100254.34;5070783;28;20252;-74
2022/06/06 07:17:51;;;;;;;5.87;5.00;;;;;;;17.55;81.55;100258.06;5070293;28;20253;-72
2022/06/06 07:20:19;;;;;;;1.50;1.40;;;;;;;17.72;82.82;100265.97;5070883;28;20163;-72
2022/06/06 07:22:59;;;;;;;7.93;4.37;;;;;;;17.83;81.56;100247.63;5070586;28;20189;-71
2022/06/06 07:25:44;;;;;;;2.70;1.87;;;;;;;17.86;80.87;100261.88;5070666;28;20169;-73
2022/06/06 07:28:15;;;;;;;2.47;2.27;;;;;;;18.01;80.92;100256.25;5071465;28;20239;-73
2022/06/06 07:31:05;;;;;;;5.47;4.40;;;;;;;18.21;80.32;100245.16;5071850;28;20515;-72
2022/06/06 07:33:49;;;;;;;2.03;1.93;;;;;;;18.24;79.59;100256.31;5072582;28;20182;-73
2022/06/06 07:36:37;;;;;;;3.93;3.37;;;;;;;18.10;79.04;100258.81;5073884;28;20335;-72
2022/06/06 07:39:16;;;;;;;3.13;2.93;;;;;;;18.04;80.96;100251.97;5073758;28;20170;-71
2022/06/06 07:41:55;;;;;;;2.23;1.50;;;;;;;18.09;80.63;100243.38;5074095;28;20194;-73
2022/06/06 07:44:39;;;;;;;4.00;3.60;;;;;;;18.13;79.74;100238.72;5073887;28;20190;-74
2022/06/06 07:47:18;;;;;;;4.10;2.23;;;;;;;18.10;79.84;100248.53;5073658;28;20571;-72
2022/06/06 07:50:06;;;;;;;3.50;3.20;;;;;;;18.10;81.05;100248.53;5073584;28;20167;-71
2022/06/06 07:52:34;;;;;;;2.93;1.30;;;;;;;18.00;80.12;100245.56;5073805;28;20202;-72
2022/06/06 07:55:02;;;;;;;1.80;1.60;;;;;;;18.23;81.31;100240.88;5073692;28;20193;-73
2022/06/06 07:57:40;;;;;;;2.43;2.27;;;;;;;18.36;80.40;100239.50;5073200;28;20262;-73
2022/06/06 08:00:10;;;;;;;2.37;2.27;;;;;;;18.42;79.88;100248.31;5073306;28;20166;-71
2022/06/06 08:02:55;;;;;;;1.43;1.37;;;;;;;18.61;80.20;100252.97;5073508;28;20181;-71
2022/06/06 08:05:37;;;;;;;1.43;1.43;;;;;;;18.71;77.22;100249.63;5073499;28;20174;-75
2022/06/06 08:08:02;;;;;;;1.40;1.30;;;;;;;18.65;77.64;100253.84;5073167;28;20182;-72
2022/06/06 08:10:40;;;;;;;3.77;1.83;;;;;;;18.73;77.62;100259.16;5073551;28;20167;-73
2022/06/06 08:13:17;;;;;;;2.30;2.10;;;;;;;19.05;78.20;100256.06;5071416;28;20207;-71
2022/06/06 08:15:52;;;;;;;1.27;1.00;;;;;;;19.05;77.81;100252.50;5053271;28;20217;-73
2022/06/06 08:18:38;;;;;;;2.00;1.27;;;;;;;18.98;76.75;100254.00;5053019;28;20566;-72
2022/06/06 08:21:22;;;;;;;4.27;3.87;;;;;;;18.72;76.55;100259.53;5053045;28;20234;-72
2022/06/06 08:23:52;;;;;;;1.40;1.30;;;;;;;18.64;76.04;100253.06;5053083;28;20259;-72
2022/06/06 08:26:19;;;;;;;1.20;1.10;;;;;;;18.61;76.01;100253.78;5053312;28;20744;-74
2022/06/06 08:28:45;;;;;;;1.13;1.13;;;;;;;18.67;76.29;100249.56;5052290;28;20175;-71
2022/06/06 08:31:11;;;;;;;0.17;0.17;;;;;;;18.67;75.37;100259.84;5052463;28;20202;-72
2022/06/06 08:33:36;;;;;;;1.43;1.33;;;;;;;18.76;76.85;100260.38;5053267;28;20651;-72
2022/06/06 08:36:21;;;;;;;4.93;1.93;;;;;;;18.73;75.38;100261.13;5068899;28;20175;-71
2022/06/06 08:39:02;;;;;;;3.50;1.27;;;;;;;18.63;74.87;100264.47;5052023;28;20698;-71
2022/06/06 08:41:51;;;;;;;0.80;0.77;;;;;;;18.70;75.75;100264.63;5052660;28;20192;-71
2022/06/06 08:44:34;;;;;;;1.10;1.10;;;;;;;18.76;75.67;100259.56;5052706;28;20183;-71
2022/06/06 08:47:18;;;;;;;1.10;1.03;;;;;;;18.91;75.82;100258.63;5052391;28;20507;-72
2022/06/06 08:53:44;;;;;;;2.10;1.30;;;;;;;19.13;74.37;100248.66;5052063;28;20185;-72
2022/06/06 08:56:31;;;;;;;0.33;0.33;;;;;;;19.08;74.29;100251.75;4990500;28;20645;-72
2022/06/06 08:59:08;;;;;;;0.53;0.40;;;;;;;19.10;75.54;100254.97;4992454;28;20173;-72
2022/06/06 09:02:24;;;;;;;1.93;1.80;;;;;;;19.25;75.02;100242.91;5034239;28;20691;-71
2022/06/06 09:05:03;;;;;;;0.10;0.10;;;;;;;19.53;75.62;100243.28;5052302;28;20175;-71
2022/06/06 09:07:53;;;;;;;1.47;1.37;;;;;;;19.76;73.85;100239.63;5051941;28;20174;-71
2022/06/06 09:10:47;;;;;;;2.43;2.30;;;;;;;20.02;72.84;100235.94;5052107;28;20229;-72
2022/06/06 09:13:31;;;;;;;2.80;2.60;;;;;;;20.27;71.41;100230.66;5052101;28;20253;-71
2022/06/06 09:16:19;;;;;;;1.10;1.10;;;;;;;20.49;70.18;100235.22;5049809;28;20190;-72
2022/06/06 09:19:21;;;;;;;4.40;0.77;;;;;;;20.71;66.48;100244.53;5064977;28;20257;-72
2022/06/06 09:22:00;;;;;;;1.77;1.67;;;;;;;20.33;65.17;100256.88;5071974;28;20190;-71
2022/06/06 09:25:02;;;;;;;2.30;1.53;;;;;;;19.94;65.81;100254.47;5071547;28;20662;-71
2022/06/06 09:27:49;;;;;;;0.73;0.73;;;;;;;19.80;66.44;100254.31;5070137;28;20227;-71
2022/06/06 09:30:20;;;;;;;0.50;0.50;;;;;;;19.71;67.59;100254.63;5071179;28;20265;-71
2022/06/06 09:33:09;;;;;;;1.37;1.27;;;;;;;19.71;66.48;100246.31;5071445;28;20755;-72
2022/06/06 09:35:40;;;;;;;1.97;1.87;;;;;;;20.12;67.12;100241.59;5071567;28;20174;-71
2022/06/06 09:38:22;;;;;;;6.47;1.17;;;;;;;20.29;64.44;100240.19;5071007;28;20177;-72
2022/06/06 09:40:57;;;;;;;1.10;1.00;;;;;;;20.09;64.46;100242.34;5071291;28;20225;-71
2022/06/06 09:43:56;;;;;;;1.03;1.00;;;;;;;20.13;63.34;100245.19;5068319;28;20235;-72
2022/06/06 09:46:50;;;;;;;1.37;1.27;;;;;;;20.29;63.23;100259.59;5066717;28;20210;-71
2022/06/06 09:49:31;;;;;;;0.80;0.80;;;;;;;20.55;62.13;100241.25;5061625;28;20261;-72
2022/06/06 09:52:07;;;;;;;0.63;0.47;;;;;;;20.94;62.33;100238.75;5070623;28;20178;-72
2022/06/06 10:00:49;;;;;;;0.50;0.50;;;;;;;20.36;62.35;100245.00;5071110;28;20209;-72
2022/06/06 10:03:33;;;;;;;0.80;0.80;;;;;;;20.12;64.06;100238.84;5071088;28;20174;-72
2022/06/06 10:06:18;;;;;;;1.13;0.47;;;;;;;19.79;64.37;100245.19;5069721;28;20182;-72
2022/06/06 10:09:19;;;;;;;1.63;0.93;;;;;;;19.74;65.81;100244.75;5070507;28;20613;-72
2022/06/06 10:12:10;;;;;;;3.00;1.77;;;;;;;19.56;65.53;100252.84;5044568;28;20703;-71
2022/06/06 10:14:57;;;;;;;0.60;0.60;;;;;;;19.21;69.04;100264.19;5070967;28;20174;-71
2022/06/06 10:17:22;;;;;;;1.53;1.43;;;;;;;18.80;72.24;100258.44;5070440;28;20231;-71
2022/06/06 10:20:10;;;;;;;2.00;1.90;;;;;;;18.44;72.99;100243.22;5070774;28;20171;-72
2022/06/06 10:22:44;;;;;;;1.10;1.10;;;;;;;18.34;74.65;100239.06;5070513;28;20210;-71
2022/06/06 10:25:34;;;;;;;0.50;0.50;;;;;;;18.64;74.04;100230.91;5070778;28;20252;-71
2022/06/06 10:28:27;;;;;;;2.00;1.87;;;;;;;18.94;70.82;100241.25;5070272;28;20180;-71
2022/06/06 10:31:40;;;;;;;7.87;0.90;;;;;;;19.12;69.40;100244.31;5070148;28;20672;-72
2022/06/06 10:34:08;;;;;;;1.00;0.97;;;;;;;19.36;68.07;100237.50;5063564;28;20199;-71
2022/06/06 10:36:58;;;;;;;0.60;0.60;;;;;;;19.96;68.19;100231.91;5070346;28;20179;-72
2022/06/06 10:39:41;;;;;;;1.40;1.30;;;;;;;20.34;63.68;100225.94;5070334;28;20174;-71
2022/06/06 10:42:13;;;;;;;0.40;0.40;;;;;;;20.56;64.12;100234.50;5070700;28;20206;-71
2022/06/06 10:44:47;;;;;;;1.10;1.00;;;;;;;20.88;63.94;100243.88;5070561;28;20232;-71
2022/06/06 10:47:12;;;;;;;0.40;0.40;;;;;;;20.84;59.34;100245.84;5070164;28;20182;-71
2022/06/06 10:49:50;;;;;;;1.10;0.97;;;;;;;20.66;58.78;100236.56;5070316;28;20575;-71
2022/06/06 10:52:18;;;;;;;0.87;0.87;;;;;;;20.69;61.41;100236.59;5070746;28;20273;-71
2022/06/06 10:55:06;;;;;;;1.50;1.20;;;;;;;20.67;60.05;100236.16;5070287;28;20171;-72
2022/06/06 10:57:52;;;;;;;0.40;0.40;;;;;;;20.96;61.58;100241.94;5070427;28;20284;-71
2022/06/06 11:00:28;;;;;;;0.40;0.40;;;;;;;21.12;59.09;100230.50;5070486;28;20178;-72
2022/06/06 11:03:24;;;;;;;0.80;0.77;;;;;;;20.99;57.05;100232.84;5074313;28;20378;-71
2022/06/06 11:06:14;;;;;;;0.57;0.57;;;;;;;20.88;57.39;100232.75;5074436;28;20507;-72
2022/06/06 11:08:42;;;;;;;1.03;0.87;;;;;;;21.05;57.37;100231.28;5074098;28;20217;-72
2022/06/06 11:11:27;;;;;;;1.80;0.90;;;;;;;21.37;56.21;100229.50;5074672;28;20208;-72
2022/06/06 11:14:21;;;;;;;11.33;0.67;;;;;;;21.46;54.29;100218.03;5074608;28;20630;-72
2022/06/06 11:16:56;;;;;;;0.80;0.80;;;;;;;21.71;53.59;100218.13;5074376;28;20544;-71
2022/06/06 11:19:36;;;;;;;0.63;0.63;;;;;;;21.76;52.64;100231.66;5074078;28;20254;-72
2022/06/06 11:22:41;;;;;;;0.00;0.00;;;;;;;21.81;51.48;100220.13;5074581;28;20229;-72
2022/06/06 11:25:07;;;;;;;0.20;0.20;;;;;;;21.98;52.40;100224.94;5074451;28;20162;-72
2022/06/06 11:27:35;;;;;;;0.63;0.63;;;;;;;22.24;53.16;100223.03;5074001;28;20189;-72
2022/06/06 11:30:20;;;;;;;0.77;0.77;;;;;;;21.91;51.34;100224.16;5073748;28;20540;-72
2022/06/06 11:32:54;;;;;;;0.43;0.43;;;;;;;21.76;52.87;100234.44;5074402;28;20170;-71
2022/06/06 11:35:29;;;;;;;0.03;0.03;;;;;;;21.77;53.02;100218.53;5074154;28;20599;-72
2022/06/06 11:38:23;;;;;;;0.37;0.37;;;;;;;22.24;53.88;100217.47;5071101;28;20247;-72
2022/06/06 11:41:06;;;;;;;0.70;0.70;;;;;;;22.10;51.00;100214.66;5073920;28;20196;-73
2022/06/06 11:43:58;;;;;;;0.50;0.50;;;;;;;21.60;51.82;100218.09;5073880;28;20179;-72
2022/06/06 11:46:42;;;;;;;0.33;0.10;;;;;;;21.73;51.96;100212.97;5074204;28;20175;-72
2022/06/06 11:49:41;;;;;;;0.63;0.63;;;;;;;21.95;50.55;100211.03;5072385;28;20592;-71
2022/06/06 11:52:22;;;;;;;0.70;0.70;;;;;;;21.65;50.51;100211.34;5070939;28;20185;-72
2022/06/06 11:55:12;;;;;;;7.10;1.30;;;;;;;21.96;51.75;100213.41;5063881;28;20187;-72
2022/06/06 11:58:12;;;;;;;0.50;0.50;;;;;;;22.27;47.49;100205.53;5070260;28;20233;-72
2022/06/06 12:00:49;;;;;;;0.13;0.13;;;;;;;22.12;47.94;100201.16;5073755;28;20258;-72
2022/06/06 12:03:35;;;;;;;0.33;0.33;;;;;;;21.58;48.25;100214.91;5073784;28;20181;-72
2022/06/06 12:06:34;;;;;;;0.40;0.40;;;;;;;21.62;48.18;100206.56;5073768;28;20539;-72
2022/06/06 12:09:11;;;;;;;0.40;0.40;;;;;;;22.15;48.46;100203.16;5073407;28;20225;-72
2022/06/06 12:11:52;;;;;;;0.40;0.40;;;;;;;22.27;47.78;100205.53;5073629;28;20207;-72
2022/06/06 12:14:51;;;;;;;0.83;0.83;;;;;;;22.22;46.45;100208.72;5073190;28;20677;-72
2022/06/06 12:17:59;;;;;;;0.53;0.53;;;;;;;22.34;46.00;100199.19;5072000;28;20182;-72
2022/06/06 12:21:04;;;;;;;0.40;0.40;;;;;;;22.63;45.33;100197.19;5073197;28;20195;-71
2022/06/06 12:24:23;;;;;;;0.20;0.20;;;;;;;22.87;44.25;100190.84;5073161;28;20174;-72
2022/06/06 12:27:14;;;;;;;0.73;0.47;;;;;;;22.83;43.64;100190.03;4991188;28;20537;-72
2022/06/06 12:29:48;;;;;;;0.10;0.10;;;;;;;22.86;43.33;100200.41;5072386;28;20236;-72
2022/06/06 12:32:45;;;;;;;0.20;0.20;;;;;;;22.74;44.07;100181.28;5073292;28;20194;-72
2022/06/06 12:35:21;;;;;;;0.30;0.30;;;;;;;22.76;43.92;100176.88;5072932;28;20181;-72
2022/06/06 12:37:56;;;;;;;0.10;0.10;;;;;;;22.81;44.58;100178.47;5072987;28;20200;-72
2022/06/06 12:40:42;;;;;;;0.20;0.20;;;;;;;22.86;46.33;100175.31;5072896;28;20188;-72
2022/06/06 12:43:34;;;;;;;0.33;0.33;;;;;;;22.92;44.51;100173.69;5073131;28;20524;-72